Time;durP1;ratioP1;P1;durP2;ratioP2;P2;SDS_P1;SDS_P2;PMS_P1;PMS_P2;Temp;Humidity;BMP_temperature;BMP_pressure;BME280_temperature;BME280_humidity;BME280_pressure;Samples;Min_cycle;Max_cycle;Signal;HPM_P1;HPM_P2
2022/06/19 00:00:16;;;;;;;5.75;4.10;;;22.90;1.00;;;;;;5086668;28;20195;-71
2022/06/19 00:02:44;;;;;;;6.85;3.92;;;22.70;1.00;;;;;;5069956;28;20230;-70
2022/06/19 00:05:14;;;;;;;7.63;3.63;;;22.60;1.00;;;;;;5067305;28;20229;-71
2022/06/19 00:07:42;;;;;;;7.95;4.00;;;22.50;45.10;;;;;;5066945;28;20226;-70
2022/06/19 00:10:10;;;;;;;5.65;3.70;;;22.40;56.80;;;;;;5068514;28;20734;-70
2022/06/19 00:12:37;;;;;;;9.93;4.40;;;22.50;66.40;;;;;;5068316;28;20203;-70
2022/06/19 00:15:05;;;;;;;7.93;4.60;;;22.40;76.50;;;;;;5075024;28;20195;-71
2022/06/19 00:17:32;;;;;;;6.03;4.90;;;22.40;97.20;;;;;;5073381;28;20639;-70
2022/06/19 00:19:59;;;;;;;7.55;4.32;;;22.30;99.90;;;;;;5074920;28;20205;-70
2022/06/19 00:22:26;;;;;;;11.00;4.45;;;22.50;87.00;;;;;;5085132;28;20211;-71
2022/06/19 00:24:53;;;;;;;8.25;5.35;;;22.50;60.20;;;;;;5065325;28;20379;-72
2022/06/19 00:27:20;;;;;;;5.82;4.90;;;22.60;30.90;;;;;;5070259;28;20332;-71
2022/06/19 00:29:48;;;;;;;9.40;6.47;;;22.80;1.00;;;;;;5069118;28;20264;-70
2022/06/19 00:32:15;;;;;;;9.32;4.65;;;22.90;1.00;;;;;;5061043;28;20546;-71
2022/06/19 00:34:42;;;;;;;8.20;4.82;;;23.10;1.00;;;;;;5062596;28;20202;-71
2022/06/19 00:37:10;;;;;;;9.77;5.28;;;23.20;1.00;;;;;;5051011;28;20195;-71
2022/06/19 00:39:39;;;;;;;7.07;5.32;;;23.30;1.00;;;;;;5076523;28;20214;-71
2022/06/19 00:42:12;;;;;;;8.82;4.78;;;23.40;1.00;;;;;;5076779;28;20194;-71
2022/06/19 00:44:40;;;;;;;10.98;4.05;;;23.50;1.00;;;;;;5056175;28;20250;-71
2022/06/19 00:47:19;;;;;;;8.00;4.30;;;23.50;1.00;;;;;;5067097;28;20218;-71
2022/06/19 00:49:53;;;;;;;7.75;4.20;;;23.40;1.00;;;;;;5064039;28;20218;-70
2022/06/19 00:52:23;;;;;;;8.10;4.90;;;23.50;1.00;;;;;;5045518;28;20202;-71
2022/06/19 00:54:59;;;;;;;8.73;3.88;;;23.50;1.00;;;;;;5059324;28;20304;-69
2022/06/19 00:57:29;;;;;;;5.78;3.45;;;23.10;1.00;;;;;;5078499;28;20192;-68
2022/06/19 01:00:01;;;;;;;16.52;9.52;;;22.90;1.00;;;;;;5072828;28;20665;-69
2022/06/19 01:02:28;;;;;;;8.48;4.95;;;22.80;1.00;;;;;;5066529;28;20191;-70
2022/06/19 01:04:56;;;;;;;9.55;4.05;;;22.80;1.00;;;;;;5075652;28;20250;-68
2022/06/19 01:07:26;;;;;;;5.60;4.05;;;22.80;1.00;;;;;;5061603;28;20205;-68
2022/06/19 01:09:53;;;;;;;4.70;2.78;;;22.70;1.00;;;;;;5080509;28;20293;-68
2022/06/19 01:12:23;;;;;;;7.03;2.90;;;22.60;1.00;;;;;;5070182;28;20225;-72
2022/06/19 01:14:53;;;;;;;3.58;2.78;;;22.30;1.00;;;;;;5080755;28;20796;-68
2022/06/19 01:17:20;;;;;;;4.82;2.75;;;22.10;1.00;;;;;;5065311;28;20190;-68
2022/06/19 01:19:48;;;;;;;8.68;4.03;;;22.10;1.00;;;;;;5081049;28;20262;-67
2022/06/19 01:22:24;;;;;;;5.47;3.75;;;22.10;1.00;;;;;;5082434;28;20198;-67
2022/06/19 01:25:02;;;;;;;8.75;4.07;;;22.30;1.00;;;;;;5084051;28;20202;-68
2022/06/19 01:30:19;;;;;;;3.75;2.75;;;22.20;1.00;;;;;;5081470;28;20681;-68
2022/06/19 01:32:49;;;;;;;5.80;3.40;;;21.90;1.00;;;;;;5047469;28;20201;-66
2022/06/19 01:35:18;;;;;;;4.85;3.10;;;21.90;1.00;;;;;;5084431;28;20590;-67
2022/06/19 01:37:46;;;;;;;5.68;3.75;;;21.90;1.00;;;;;;5082278;28;20214;-67
2022/06/19 01:40:18;;;;;;;4.07;2.63;;;22.00;1.00;;;;;;5072828;28;20227;-67
2022/06/19 01:42:46;;;;;;;5.80;3.28;;;22.00;1.00;;;;;;5088497;28;20200;-66
2022/06/19 01:45:13;;;;;;;4.20;2.95;;;22.00;1.00;;;;;;5086626;28;20194;-67
2022/06/19 01:47:41;;;;;;;5.32;3.30;;;21.80;1.00;;;;;;5089251;28;20199;-67
2022/06/19 01:50:12;;;;;;;4.25;3.22;;;21.60;1.00;;;;;;5069637;28;20214;-67
2022/06/19 01:52:39;;;;;;;6.20;3.13;;;21.60;20.80;;;;;;5087066;28;20199;-68
2022/06/19 01:55:16;;;;;;;5.35;2.72;;;21.70;22.60;;;;;;5073500;28;20249;-67
2022/06/19 01:57:50;;;;;;;8.98;3.03;;;21.80;1.00;;;;;;5068636;28;20242;-69
2022/06/19 02:00:23;;;;;;;5.15;2.50;;;21.80;1.00;;;;;;5061823;28;20206;-69
2022/06/19 02:03:16;;;;;;;4.70;2.50;;;21.70;1.00;;;;;;5070339;28;20222;-69
2022/06/19 02:05:43;;;;;;;3.03;2.70;;;21.50;1.00;;;;;;5084060;28;20206;-68
2022/06/19 02:08:13;;;;;;;3.08;2.20;;;21.50;1.00;;;;;;5065635;28;20202;-69
2022/06/19 02:10:44;;;;;;;8.68;2.65;;;21.40;1.00;;;;;;5084303;28;20206;-69
2022/06/19 02:13:14;;;;;;;10.13;2.70;;;21.30;1.00;;;;;;5059830;28;20693;-69
2022/06/19 02:15:44;;;;;;;6.70;2.90;;;21.20;1.00;;;;;;5084108;28;20685;-68
2022/06/19 02:18:24;;;;;;;4.57;2.67;;;21.10;1.00;;;;;;5075926;28;20191;-69
2022/06/19 02:20:53;;;;;;;5.20;2.90;;;21.00;6.10;;;;;;5081689;28;20202;-71
2022/06/19 02:23:25;;;;;;;6.28;2.88;;;21.00;5.30;;;;;;5067513;28;20199;-71
2022/06/19 02:25:52;;;;;;;5.10;2.65;;;20.90;99.90;;;;;;5069206;28;20186;-72
2022/06/19 02:28:20;;;;;;;5.82;3.00;;;21.00;40.10;;;;;;5084136;28;20207;-71
2022/06/19 02:30:48;;;;;;;4.80;2.90;;;21.00;48.50;;;;;;5083532;28;20210;-71
2022/06/19 02:33:18;;;;;;;6.00;2.60;;;21.10;99.90;;;;;;5074065;28;20199;-72
2022/06/19 02:35:45;;;;;;;3.45;2.55;;;21.10;1.00;;;;;;5068110;28;20187;-72
2022/06/19 02:38:17;;;;;;;3.80;3.00;;;21.10;1.00;;;;;;5066723;28;20600;-70
2022/06/19 02:40:53;;;;;;;5.07;2.55;;;21.10;99.90;;;;;;5084701;28;20331;-71
2022/06/19 02:43:28;;;;;;;3.78;2.60;;;21.20;1.00;;;;;;5067389;28;20586;-70
2022/06/19 02:45:56;;;;;;;3.88;2.58;;;21.10;70.70;;;;;;5067594;28;20192;-70
2022/06/19 02:48:27;;;;;;;3.40;2.40;;;21.10;54.10;;;;;;5067046;28;20213;-69
2022/06/19 02:50:56;;;;;;;4.82;2.95;;;21.10;1.00;;;;;;5072807;28;20210;-70
2022/06/19 02:53:24;;;;;;;5.22;3.10;;;21.20;91.50;;;;;;5067988;28;20194;-71
2022/06/19 02:55:51;;;;;;;5.40;2.72;;;21.10;60.00;;;;;;5088020;28;20187;-70
2022/06/19 02:58:19;;;;;;;5.80;2.85;;;21.20;1.00;;;;;;5085118;28;20246;-71
2022/06/19 03:00:48;;;;;;;4.88;3.00;;;20.90;99.20;;;;;;5073741;28;20195;-71
2022/06/19 03:03:50;;;;;;;4.45;2.65;;;20.80;14.00;;;;;;5083685;28;20235;-71
2022/06/19 03:06:17;;;;;;;8.00;2.88;;;20.70;2.60;;;;;;5070092;28;20220;-70
2022/06/19 03:08:44;;;;;;;4.35;2.97;;;20.60;70.80;;;;;;5083619;28;20187;-70
2022/06/19 03:11:11;;;;;;;5.18;3.13;;;20.40;99.90;;;;;;5083759;28;20203;-69
2022/06/19 03:13:38;;;;;;;6.72;2.90;;;20.50;99.90;;;;;;5073704;28;20195;-68
2022/06/19 03:16:07;;;;;;;4.03;2.78;;;20.50;99.90;;;;;;5066191;28;20195;-69
2022/06/19 03:18:36;;;;;;;5.10;2.80;;;20.30;99.90;;;;;;5084103;28;20556;-68
2022/06/19 03:21:04;;;;;;;5.95;2.65;;;20.00;99.90;;;;;;5086659;28;20227;-68
2022/06/19 03:23:31;;;;;;;7.55;2.85;;;20.10;99.90;;;;;;5058814;28;20211;-68
2022/06/19 03:25:58;;;;;;;5.57;2.92;;;20.10;99.90;;;;;;5085130;28;20199;-70
2022/06/19 03:28:25;;;;;;;6.72;3.10;;;20.40;99.90;;;;;;5073962;28;20211;-71
2022/06/19 03:30:56;;;;;;;7.45;2.80;;;20.50;62.00;;;;;;5074121;28;20230;-69
2022/06/19 03:33:24;;;;;;;4.22;2.90;;;20.40;50.00;;;;;;5066213;28;20199;-69
2022/06/19 03:35:52;;;;;;;4.97;2.70;;;20.40;99.90;;;;;;5082554;28;20202;-68
2022/06/19 03:38:20;;;;;;;8.18;2.55;;;20.70;1.00;;;;;;5083720;28;20767;-70
2022/06/19 03:40:47;;;;;;;3.88;2.47;;;20.60;1.00;;;;;;5085536;28;20197;-72
2022/06/19 03:43:14;;;;;;;6.15;2.83;;;20.40;47.40;;;;;;5084078;28;20259;-70
2022/06/19 03:45:41;;;;;;;4.43;2.53;;;20.20;1.00;;;;;;5068251;28;20191;-69
2022/06/19 03:48:12;;;;;;;4.70;2.25;;;20.10;39.70;;;;;;5085504;28;20194;-70
2022/06/19 03:50:39;;;;;;;3.95;2.30;;;20.20;1.00;;;;;;5057239;28;20218;-69
2022/06/19 03:53:06;;;;;;;4.38;2.33;;;20.10;1.00;;;;;;5085999;28;20217;-68
2022/06/19 03:55:34;;;;;;;4.43;2.28;;;20.10;1.00;;;;;;5084594;28;20209;-68
2022/06/19 03:58:01;;;;;;;4.80;2.40;;;20.10;1.00;;;;;;5083563;28;20235;-70
2022/06/19 04:00:28;;;;;;;4.85;2.50;;;20.50;1.00;;;;;;5081689;28;20271;-68
2022/06/19 04:02:55;;;;;;;3.17;2.28;;;20.50;1.00;;;;;;5083958;28;20239;-68
2022/06/19 04:05:23;;;;;;;5.28;2.10;;;20.70;1.00;;;;;;5066595;28;20190;-69
2022/06/19 04:07:51;;;;;;;5.45;1.80;;;20.70;1.00;;;;;;5083427;28;20205;-70
2022/06/19 04:10:19;;;;;;;7.57;2.25;;;20.90;1.00;;;;;;5080462;28;20200;-71
2022/06/19 04:12:52;;;;;;;4.05;2.20;;;21.20;1.00;;;;;;5054688;28;20190;-71
2022/06/19 04:15:19;;;;;;;4.75;1.90;;;21.20;1.00;;;;;;5083719;28;20249;-71
2022/06/19 04:17:46;;;;;;;4.05;2.05;;;21.10;1.00;;;;;;5081913;28;20301;-70
2022/06/19 04:20:13;;;;;;;5.40;2.00;;;21.10;1.00;;;;;;5065125;28;20202;-69
2022/06/19 04:22:40;;;;;;;6.07;2.72;;;21.50;1.00;;;;;;5070358;28;20195;-70
2022/06/19 04:25:13;;;;;;;6.32;2.13;;;21.60;99.90;;;;;;5068699;28;20272;-70
2022/06/19 04:27:43;;;;;;;6.30;2.38;;;21.70;99.90;;;;;;5079129;28;20194;-71
2022/06/19 04:30:10;;;;;;;5.97;2.75;;;21.90;99.90;;;;;;5066474;28;20198;-73
2022/06/19 04:32:37;;;;;;;11.85;3.13;;;22.10;99.90;;;;;;5087273;28;20191;-70
2022/06/19 04:35:05;;;;;;;4.22;2.20;;;22.30;99.90;;;;;;5087814;28;20190;-69
2022/06/19 04:37:32;;;;;;;7.25;2.80;;;22.50;99.90;;;;;;5067821;28;20199;-70
2022/06/19 04:39:59;;;;;;;5.88;2.65;;;22.50;99.90;;;;;;5084451;28;20239;-70
2022/06/19 04:42:26;;;;;;;6.03;2.20;;;22.60;99.90;;;;;;5080977;28;20218;-70
2022/06/19 04:44:53;;;;;;;6.80;2.08;;;23.00;99.90;;;;;;5076530;28;20649;-70
2022/06/19 04:47:20;;;;;;;7.13;2.30;;;23.30;99.90;;;;;;5078184;28;20198;-72
2022/06/19 04:49:49;;;;;;;8.95;2.30;;;23.30;99.90;;;;;;5060399;28;21778;-71
2022/06/19 04:52:16;;;;;;;9.98;2.80;;;23.60;99.90;;;;;;5076937;28;20702;-71
2022/06/19 04:54:45;;;;;;;8.18;2.28;;;23.70;99.90;;;;;;5048595;28;20249;-72
2022/06/19 04:57:12;;;;;;;8.82;2.85;;;23.80;99.90;;;;;;5059279;28;20205;-69
2022/06/19 04:59:39;;;;;;;6.00;2.00;;;24.00;99.90;;;;;;5077545;28;20225;-69
2022/06/19 05:02:06;;;;;;;5.30;2.40;;;24.50;99.90;;;;;;5076962;28;20190;-70
2022/06/19 05:04:34;;;;;;;7.00;2.58;;;24.60;99.90;;;;;;5081963;28;20269;-69
2022/06/19 05:07:01;;;;;;;10.48;2.95;;;25.20;99.90;;;;;;5069144;28;20568;-70
2022/06/19 05:09:28;;;;;;;7.55;2.28;;;24.60;99.90;;;;;;5079730;28;20806;-70
2022/06/19 05:11:55;;;;;;;9.05;2.65;;;24.20;99.90;;;;;;5060225;28;20214;-70
2022/06/19 05:14:22;;;;;;;9.07;3.33;;;24.00;99.90;;;;;;5069968;28;20206;-70
2022/06/19 05:16:50;;;;;;;11.70;2.90;;;24.10;99.90;;;;;;5078537;28;20225;-70
2022/06/19 05:19:17;;;;;;;10.07;2.75;;;25.00;99.90;;;;;;5062851;28;20202;-70
2022/06/19 05:21:45;;;;;;;11.68;2.88;;;26.00;99.90;;;;;;5072232;28;20844;-70
2022/06/19 05:24:12;;;;;;;7.13;2.42;;;26.40;99.90;;;;;;5082569;28;20203;-69
2022/06/19 05:26:39;;;;;;;13.38;3.50;;;25.90;99.90;;;;;;5083213;28;20206;-68
2022/06/19 05:29:06;;;;;;;12.63;2.72;;;26.10;99.90;;;;;;5084077;28;20218;-67
2022/06/19 05:31:34;;;;;;;13.13;3.65;;;26.50;99.90;;;;;;5083510;28;20724;-67
2022/06/19 05:34:01;;;;;;;11.15;3.28;;;26.00;99.90;;;;;;5072205;28;20202;-67
2022/06/19 05:36:36;;;;;;;10.52;2.85;;;26.00;99.90;;;;;;5068617;28;20334;-67
2022/06/19 05:39:08;;;;;;;7.63;2.55;;;25.70;99.90;;;;;;5083355;28;20213;-67
2022/06/19 05:41:38;;;;;;;9.68;3.55;;;26.90;99.90;;;;;;5081587;28;20330;-67
2022/06/19 05:44:05;;;;;;;12.48;3.33;;;26.70;99.90;;;;;;5067579;28;20198;-69
2022/06/19 05:46:35;;;;;;;12.90;3.65;;;26.60;99.90;;;;;;5081011;28;20205;-69
2022/06/19 05:49:02;;;;;;;10.93;3.30;;;26.70;99.90;;;;;;5080972;28;22115;-69
2022/06/19 05:51:31;;;;;;;7.22;3.25;;;28.20;99.90;;;;;;5080972;28;20287;-69
2022/06/19 05:53:58;;;;;;;11.57;3.22;;;29.00;99.90;;;;;;5067927;28;20230;-69
2022/06/19 05:56:26;;;;;;;9.68;2.92;;;29.00;99.90;;;;;;5053448;28;20225;-67
2022/06/19 05:58:54;;;;;;;9.27;3.10;;;29.40;99.90;;;;;;5063052;28;20203;-67
2022/06/19 06:01:22;;;;;;;9.65;3.15;;;29.20;99.90;;;;;;5082213;28;20666;-68
2022/06/19 06:03:50;;;;;;;12.32;3.78;;;29.80;99.90;;;;;;5083425;28;20295;-67
2022/06/19 06:06:22;;;;;;;13.88;3.55;;;29.80;99.90;;;;;;5067704;28;20199;-68
2022/06/19 06:08:49;;;;;;;9.48;3.20;;;30.10;99.90;;;;;;5080800;28;20199;-66
2022/06/19 06:11:17;;;;;;;12.32;3.15;;;30.00;99.90;;;;;;5052516;28;20305;-66
2022/06/19 06:13:44;;;;;;;10.13;3.10;;;29.90;99.90;;;;;;5064700;28;20217;-67
2022/06/19 06:16:13;;;;;;;8.13;2.85;;;30.40;99.90;;;;;;5063728;28;20199;-69
2022/06/19 06:18:40;;;;;;;7.60;3.33;;;31.50;99.90;;;;;;5066603;28;20271;-68
2022/06/19 06:21:12;;;;;;;14.75;3.47;;;31.90;99.90;;;;;;5053015;28;20220;-69
2022/06/19 06:23:39;;;;;;;11.00;3.05;;;31.70;99.00;;;;;;5080196;28;20198;-67
2022/06/19 06:26:11;;;;;;;12.85;3.67;;;31.60;99.90;;;;;;5049164;28;20217;-68
2022/06/19 06:28:41;;;;;;;8.93;3.40;;;32.00;98.90;;;;;;5056241;28;20255;-68
2022/06/19 06:31:09;;;;;;;12.23;3.35;;;33.10;95.20;;;;;;5065881;28;20209;-68
2022/06/19 06:33:36;;;;;;;9.88;3.65;;;31.10;93.30;;;;;;5052993;28;20198;-67
2022/06/19 06:36:04;;;;;;;13.20;4.10;;;30.80;97.50;;;;;;5086750;28;20222;-68
2022/06/19 06:38:31;;;;;;;10.30;3.58;;;30.90;94.40;;;;;;5083790;28;20239;-67
2022/06/19 06:40:58;;;;;;;12.10;3.42;;;29.50;94.20;;;;;;5085172;28;20191;-66
2022/06/19 06:43:25;;;;;;;11.25;3.30;;;29.10;97.80;;;;;;5052627;28;20293;-66
2022/06/19 06:45:53;;;;;;;11.35;2.80;;;28.60;94.70;;;;;;5067381;28;20256;-66
2022/06/19 06:48:20;;;;;;;12.45;3.42;;;29.00;96.80;;;;;;5084606;28;20182;-67
2022/06/19 06:50:47;;;;;;;11.55;2.85;;;28.10;95.90;;;;;;5051353;28;20206;-66
2022/06/19 06:53:14;;;;;;;12.50;3.20;;;27.90;96.10;;;;;;5074727;28;20202;-67
2022/06/19 06:55:44;;;;;;;7.35;2.70;;;26.90;95.20;;;;;;5085976;28;20606;-67
2022/06/19 06:58:11;;;;;;;11.63;3.28;;;27.40;96.10;;;;;;5068683;28;20222;-67
2022/06/19 07:00:39;;;;;;;13.27;3.75;;;27.10;96.70;;;;;;5083443;28;20252;-67
2022/06/19 07:03:06;;;;;;;11.68;3.20;;;27.30;97.30;;;;;;5072989;28;21084;-67
2022/06/19 07:05:33;;;;;;;12.45;3.35;;;27.00;96.60;;;;;;5069806;28;20198;-67
2022/06/19 07:08:01;;;;;;;9.43;3.00;;;27.50;96.30;;;;;;5067521;28;20258;-67
2022/06/19 07:10:28;;;;;;;11.13;3.25;;;27.20;96.70;;;;;;5086723;28;20198;-70
2022/06/19 07:12:55;;;;;;;19.73;3.50;;;27.20;98.00;;;;;;5084281;28;20228;-69
2022/06/19 07:15:23;;;;;;;12.38;4.18;;;27.30;97.50;;;;;;5083095;28;20195;-68
2022/06/19 07:17:50;;;;;;;11.95;2.95;;;28.00;98.70;;;;;;5084810;28;20649;-69
2022/06/19 07:20:18;;;;;;;10.57;3.05;;;28.50;96.70;;;;;;5071710;28;20524;-68
2022/06/19 07:22:45;;;;;;;11.18;3.80;;;27.00;97.20;;;;;;5069438;28;20195;-67
2022/06/19 07:25:18;;;;;;;16.83;4.15;;;27.00;96.80;;;;;;5066527;28;20670;-67
2022/06/19 07:27:45;;;;;;;9.02;3.20;;;27.50;98.50;;;;;;5083712;28;20202;-67
2022/06/19 07:30:20;;;;;;;13.23;3.13;;;29.60;98.80;;;;;;5065029;28;20277;-68
2022/06/19 07:32:47;;;;;;;12.65;3.75;;;30.70;96.30;;;;;;5082094;28;20225;-68
2022/06/19 07:35:15;;;;;;;10.93;2.88;;;32.10;95.10;;;;;;5071548;28;20266;-68
2022/06/19 07:37:42;;;;;;;10.40;3.58;;;35.00;95.70;;;;;;5069984;28;20586;-71
2022/06/19 07:40:12;;;;;;;7.60;3.00;;;36.60;91.20;;;;;;5078424;28;20191;-71
2022/06/19 07:42:39;;;;;;;10.50;3.53;;;36.60;90.90;;;;;;5079127;28;20555;-69
2022/06/19 07:45:07;;;;;;;9.52;2.92;;;37.10;84.50;;;;;;5082426;28;20259;-70
2022/06/19 07:50:21;;;;;;;12.18;3.40;;;37.60;83.30;;;;;;5077858;28;20190;-71
2022/06/19 07:52:50;;;;;;;11.55;3.60;;;35.60;79.10;;;;;;5082175;28;20218;-70
2022/06/19 07:55:20;;;;;;;10.00;3.30;;;33.80;76.30;;;;;;5070910;28;20190;-70
2022/06/19 07:57:48;;;;;;;10.07;2.80;;;32.40;74.10;;;;;;5054736;28;20201;-70
2022/06/19 08:00:23;;;;;;;7.90;2.80;;;36.20;81.60;;;;;;5064029;28;20201;-70
2022/06/19 08:02:52;;;;;;;9.18;3.08;;;38.70;78.10;;;;;;5073989;28;20233;-70
2022/06/19 08:05:22;;;;;;;10.38;3.30;;;39.00;78.50;;;;;;5057761;28;20630;-69
2022/06/19 08:07:52;;;;;;;8.52;4.05;;;39.20;75.20;;;;;;5057923;28;20669;-69
2022/06/19 08:10:31;;;;;;;9.38;4.15;;;38.60;73.80;;;;;;5073304;28;20598;-69
2022/06/19 08:12:59;;;;;;;7.60;3.28;;;38.20;72.00;;;;;;5065391;28;20652;-69
2022/06/19 08:15:27;;;;;;;10.10;4.25;;;38.40;71.10;;;;;;5076395;28;20198;-69
2022/06/19 08:17:54;;;;;;;9.85;4.43;;;38.30;70.70;;;;;;5066020;28;20195;-66
2022/06/19 08:20:22;;;;;;;9.23;4.20;;;38.10;67.50;;;;;;5056834;28;20190;-68
2022/06/19 08:22:50;;;;;;;9.50;3.80;;;37.40;63.90;;;;;;5058417;28;20208;-68
2022/06/19 08:25:19;;;;;;;10.60;3.30;;;37.40;65.80;;;;;;5057661;28;20247;-67
2022/06/19 08:27:49;;;;;;;13.20;4.80;;;36.80;88.20;;;;;;5076041;28;20194;-68
2022/06/19 08:30:23;;;;;;;8.68;4.07;;;37.00;62.20;;;;;;5058080;28;20204;-67
2022/06/19 08:32:51;;;;;;;9.55;4.18;;;37.20;62.60;;;;;;5069804;28;20708;-67
2022/06/19 08:35:19;;;;;;;8.20;4.13;;;37.30;62.10;;;;;;5056640;28;20194;-67
2022/06/19 08:37:50;;;;;;;10.93;3.67;;;37.20;61.50;;;;;;5074437;28;20213;-69
2022/06/19 08:40:31;;;;;;;9.55;4.05;;;37.40;59.80;;;;;;5063444;28;20221;-68
2022/06/19 08:43:10;;;;;;;11.20;4.60;;;37.90;59.50;;;;;;5074014;28;20194;-68
2022/06/19 08:45:52;;;;;;;11.70;5.15;;;38.20;57.60;;;;;;5049079;28;20744;-68
2022/06/19 08:48:25;;;;;;;14.70;5.30;;;37.60;55.90;;;;;;5058163;28;20229;-67
2022/06/19 08:51:27;;;;;;;8.88;4.75;;;37.80;56.40;;;;;;5075968;28;20247;-69
2022/06/19 08:54:19;;;;;;;11.20;3.88;;;37.90;56.80;;;;;;5042790;28;20676;-66
2022/06/19 08:56:51;;;;;;;10.60;3.75;;;38.00;56.50;;;;;;5065689;28;20657;-68
2022/06/19 08:59:18;;;;;;;9.88;3.28;;;37.10;54.70;;;;;;5076319;28;20209;-68
2022/06/19 09:02:11;;;;;;;12.05;3.72;;;37.20;55.10;;;;;;5075317;28;20259;-70
2022/06/19 09:08:04;;;;;;;8.35;3.13;;;38.20;56.40;;;;;;5073887;28;20626;-70
2022/06/19 09:11:02;;;;;;;9.68;3.42;;;37.70;52.90;;;;;;5073334;28;20248;-69
2022/06/19 09:13:38;;;;;;;11.93;3.70;;;37.50;53.90;;;;;;5074039;28;20198;-69
2022/06/19 09:16:33;;;;;;;9.95;3.70;;;38.40;54.40;;;;;;5058406;28;20285;-70
2022/06/19 09:19:25;;;;;;;7.68;3.50;;;38.90;52.10;;;;;;5058820;28;20210;-69
2022/06/19 09:22:01;;;;;;;8.25;3.60;;;38.80;51.10;;;;;;5076813;28;21102;-69
2022/06/19 09:24:46;;;;;;;10.23;3.42;;;37.50;49.60;;;;;;5074028;28;20224;-69
2022/06/19 09:27:15;;;;;;;7.65;2.80;;;37.40;50.90;;;;;;5042124;28;20848;-68
2022/06/19 09:29:53;;;;;;;11.57;3.60;;;38.00;51.30;;;;;;5042146;28;20256;-69
2022/06/19 09:32:59;;;;;;;8.82;3.28;;;38.50;49.80;;;;;;5074877;28;20769;-69
2022/06/19 09:35:44;;;;;;;9.32;3.30;;;38.40;48.60;;;;;;4981782;28;20432;-69
2022/06/19 09:38:29;;;;;;;8.75;3.30;;;37.80;46.90;;;;;;5072063;28;20213;-68
2022/06/19 09:41:02;;;;;;;12.50;3.17;;;37.10;48.00;;;;;;5058700;28;20192;-69
2022/06/19 09:43:39;;;;;;;9.35;2.95;;;37.00;46.90;;;;;;5040925;28;20618;-69
2022/06/19 09:46:17;;;;;;;8.35;3.05;;;37.40;48.30;;;;;;5074059;28;20244;-69
2022/06/19 09:49:14;;;;;;;8.70;2.88;;;37.70;46.90;;;;;;5042046;28;20204;-69
2022/06/19 09:52:00;;;;;;;8.18;2.72;;;37.00;44.60;;;;;;5058335;28;20198;-71
2022/06/19 09:54:35;;;;;;;6.38;3.00;;;35.60;43.10;;;;;;5062404;28;20186;-69
2022/06/19 09:57:29;;;;;;;7.80;2.80;;;34.80;48.50;;;;;;5075836;28;20182;-70
2022/06/19 10:00:10;;;;;;;11.27;3.63;;;35.70;46.00;;;;;;5075791;28;20187;-69
2022/06/19 10:03:03;;;;;;;8.45;2.83;;;36.00;45.50;;;;;;5066439;28;20372;-70
2022/06/19 10:05:45;;;;;;;8.45;2.88;;;36.30;44.00;;;;;;5078927;28;20201;-69
2022/06/19 10:08:38;;;;;;;10.93;3.33;;;35.90;43.60;;;;;;5077193;28;20554;-69
2022/06/19 10:11:13;;;;;;;10.35;3.80;;;35.80;44.80;;;;;;5080898;28;20590;-68
2022/06/19 10:13:49;;;;;;;9.00;4.28;;;35.90;45.20;;;;;;5084372;28;20235;-70
2022/06/19 10:16:35;;;;;;;11.25;4.90;;;35.10;43.50;;;;;;5068023;28;20202;-69
2022/06/19 10:19:16;;;;;;;10.40;4.15;;;34.60;44.90;;;;;;5068220;28;20201;-69
2022/06/19 10:24:34;;;;;;;7.90;2.92;;;34.80;44.70;;;;;;5066652;28;20194;-70
2022/06/19 10:27:33;;;;;;;13.70;3.05;;;33.80;43.00;;;;;;5085647;28;20198;-69
2022/06/19 10:30:09;;;;;;;8.55;3.15;;;31.00;45.50;;;;;;5067031;28;20207;-69
2022/06/19 10:32:50;;;;;;;8.55;3.40;;;30.50;47.20;;;;;;5087025;28;20203;-69
2022/06/19 10:35:43;;;;;;;10.73;3.78;;;29.60;48.80;;;;;;5085658;28;20199;-70
2022/06/19 10:38:19;;;;;;;12.90;3.30;;;30.20;49.90;;;;;;5072877;28;20216;-69
2022/06/19 10:40:49;;;;;;;9.25;3.00;;;28.70;51.30;;;;;;5085157;28;20201;-69
2022/06/19 10:43:39;;;;;;;11.60;3.10;;;27.90;53.10;;;;;;5068582;28;20598;-70
2022/06/19 10:46:10;;;;;;;13.82;3.53;;;27.50;57.20;;;;;;5086752;28;20199;-69
2022/06/19 10:49:09;;;;;;;13.60;3.50;;;27.30;55.60;;;;;;5064789;28;20653;-70
2022/06/19 10:52:08;;;;;;;11.13;3.63;;;26.80;60.50;;;;;;5083347;28;20198;-69
2022/06/19 10:54:48;;;;;;;11.75;3.13;;;26.50;62.90;;;;;;5063318;28;20573;-69
2022/06/19 10:57:29;;;;;;;11.30;3.20;;;27.70;63.50;;;;;;5083330;28;20186;-69
2022/06/19 10:59:57;;;;;;;10.10;3.38;;;28.30;64.10;;;;;;5071020;28;20213;-70
2022/06/19 11:05:52;;;;;;;10.05;2.92;;;26.50;59.40;;;;;;5084770;28;20199;-69
2022/06/19 11:08:23;;;;;;;10.50;2.65;;;26.20;67.50;;;;;;5055607;28;20251;-69
2022/06/19 11:10:59;;;;;;;13.88;3.17;;;26.80;69.80;;;;;;5083024;28;21824;-69
2022/06/19 11:13:56;;;;;;;15.65;3.63;;;25.80;80.30;;;;;;5079500;28;20275;-70
2022/06/19 11:16:23;;;;;;;12.32;3.22;;;25.50;90.70;;;;;;5060712;28;20206;-70
2022/06/19 11:18:51;;;;;;;13.88;3.50;;;24.80;99.60;;;;;;5062623;28;20286;-70
2022/06/19 11:21:24;;;;;;;11.27;2.85;;;24.70;99.90;;;;;;5066275;28;20278;-69
2022/06/19 11:23:59;;;;;;;16.75;3.85;;;25.70;99.90;;;;;;5066388;28;20217;-69
2022/06/19 11:26:30;;;;;;;10.13;3.35;;;26.60;99.20;;;;;;5082618;28;20201;-68
2022/06/19 11:29:18;;;;;;;11.45;2.88;;;27.70;94.50;;;;;;5064947;28;20281;-68
